createdAt,value
2018-03-14T00:00:41.753Z,40.90
2018-03-14T00:01:41.680Z,41.50
2018-03-14T00:02:41.642Z,40.80
2018-03-14T00:03:41.589Z,42.30
2018-03-14T00:04:41.563Z,44.30
2018-03-14T00:05:41.513Z,41.30
2018-03-14T00:06:41.510Z,39.50
2018-03-14T00:07:41.428Z,37.70
2018-03-14T00:08:41.389Z,36.10
2018-03-14T00:09:41.341Z,38.10
2018-03-14T00:10:41.296Z,35.00
2018-03-14T00:11:41.260Z,33.60
2018-03-14T00:12:41.230Z,35.00
2018-03-14T00:13:41.171Z,32.20
2018-03-14T00:14:41.133Z,33.40
2018-03-14T00:15:41.089Z,35.60
2018-03-14T00:16:41.052Z,36.00
2018-03-14T00:17:41.031Z,32.40
2018-03-14T00:18:40.974Z,32.70
2018-03-14T00:19:40.917Z,34.10
2018-03-14T00:20:40.870Z,34.50
2018-03-14T00:21:40.834Z,32.60
2018-03-14T00:22:40.791Z,33.20
2018-03-14T00:23:40.785Z,31.90
2018-03-14T00:24:40.708Z,33.30
2018-03-14T00:25:40.664Z,36.10
2018-03-14T00:26:40.630Z,35.30
2018-03-14T00:27:40.578Z,35.20
2018-03-14T00:28:40.542Z,34.80
2018-03-14T00:29:40.519Z,32.50
2018-03-14T00:30:40.465Z,31.20
2018-03-14T00:31:40.424Z,30.90
2018-03-14T00:32:40.367Z,30.90
2018-03-14T00:33:40.332Z,34.50
2018-03-14T00:34:40.285Z,33.60
2018-03-14T00:35:40.284Z,30.80
2018-03-14T00:36:40.199Z,31.10
2018-03-14T00:37:40.156Z,33.90
2018-03-14T00:38:40.120Z,35.30
2018-03-14T00:39:40.080Z,34.40
2018-03-14T00:40:40.031Z,32.90
2018-03-14T00:41:40.018Z,34.80
2018-03-14T00:42:39.948Z,36.30
2018-03-14T00:43:39.912Z,35.70
2018-03-14T00:44:39.860Z,36.90
2018-03-14T00:45:39.819Z,35.00
2018-03-14T00:46:39.808Z,35.80
2018-03-14T00:47:39.736Z,36.10
2018-03-14T00:48:39.715Z,35.30
2018-03-14T00:49:39.654Z,36.10
2018-03-14T00:50:39.615Z,35.50
2018-03-14T00:51:39.569Z,37.50
2018-03-14T00:52:39.542Z,38.40
2018-03-14T00:53:39.488Z,38.60
2018-03-14T00:54:39.432Z,36.20
2018-03-14T00:55:39.398Z,35.70
2018-03-14T00:56:39.364Z,34.50
2018-03-14T00:57:39.345Z,35.50
2018-03-14T00:58:39.271Z,34.40
2018-03-14T00:59:39.233Z,37.80
2018-03-14T01:00:39.183Z,40.00
2018-03-14T01:01:39.142Z,36.70
2018-03-14T01:02:39.098Z,36.90
2018-03-14T01:03:39.097Z,35.50
2018-03-14T01:04:39.029Z,35.00
2018-03-14T01:05:38.984Z,36.10
2018-03-14T01:06:38.937Z,35.40
2018-03-14T01:07:38.886Z,36.60
2018-03-14T01:08:38.903Z,42.90
2018-03-14T01:09:38.807Z,38.30
2018-03-14T01:10:38.765Z,39.20
2018-03-14T01:11:38.726Z,39.70
2018-03-14T01:12:38.684Z,37.10
2018-03-14T01:13:38.642Z,38.80
2018-03-14T01:14:38.614Z,37.50
2018-03-14T01:15:38.554Z,37.80
2018-03-14T01:16:38.509Z,40.20
2018-03-14T01:17:38.476Z,38.30
2018-03-14T01:18:38.429Z,37.90
2018-03-14T01:19:38.421Z,40.70
2018-03-14T01:20:38.348Z,42.90
2018-03-14T01:21:38.300Z,40.50
2018-03-14T01:22:38.257Z,41.30
2018-03-14T01:23:38.219Z,39.30
2018-03-14T01:24:38.167Z,41.10
2018-03-14T01:25:38.171Z,40.20
2018-03-14T01:26:38.084Z,40.80
2018-03-14T01:27:38.047Z,46.50
2018-03-14T01:28:38.009Z,45.90
2018-03-14T01:29:37.964Z,45.90
2018-03-14T01:30:37.921Z,44.60
2018-03-14T01:31:37.897Z,44.40
2018-03-14T01:32:37.839Z,44.70
2018-03-14T01:33:37.790Z,43.10
2018-03-14T01:34:37.752Z,45.10
2018-03-14T01:35:37.714Z,45.10
2018-03-14T01:36:37.701Z,46.90
2018-03-14T01:37:37.632Z,47.90
2018-03-14T01:38:37.590Z,47.80
2018-03-14T01:39:37.545Z,48.40
2018-03-14T01:40:37.497Z,48.40
2018-03-14T01:41:37.460Z,46.50
2018-03-14T01:42:37.444Z,48.60
2018-03-14T01:43:37.400Z,48.00
2018-03-14T01:44:37.327Z,47.50
2018-03-14T01:45:37.295Z,55.90
2018-03-14T01:46:37.249Z,54.90
2018-03-14T01:47:37.211Z,49.80
2018-03-14T01:48:37.194Z,54.20
2018-03-14T01:49:37.122Z,48.70
2018-03-14T01:50:37.083Z,55.20
2018-03-14T01:51:37.031Z,49.60
2018-03-14T01:52:36.992Z,50.60
2018-03-14T01:53:36.963Z,53.00
2018-03-14T01:54:36.946Z,50.60
2018-03-14T01:55:36.866Z,50.80
2018-03-14T01:56:36.819Z,53.60
2018-03-14T01:57:36.787Z,51.10
2018-03-14T01:58:36.744Z,52.40
2018-03-14T01:59:36.701Z,51.10
2018-03-14T02:00:36.696Z,52.50
2018-03-14T02:01:36.612Z,56.10
2018-03-14T02:02:36.572Z,57.00
2018-03-14T02:03:36.558Z,54.30
2018-03-14T02:04:36.497Z,58.10
2018-03-14T02:05:36.447Z,58.20
2018-03-14T02:06:36.426Z,55.70
2018-03-14T02:07:36.405Z,55.50
2018-03-14T02:08:36.329Z,52.60
2018-03-14T02:09:36.285Z,59.60
2018-03-14T02:10:36.232Z,51.70
2018-03-14T02:11:36.222Z,58.40
2018-03-14T02:12:36.149Z,58.00
2018-03-14T02:13:36.135Z,59.70
2018-03-14T02:14:36.066Z,61.90
2018-03-14T02:15:36.034Z,61.10
2018-03-14T02:16:35.974Z,64.80
2018-03-14T02:17:35.973Z,65.30
2018-03-14T02:18:35.897Z,66.10
2018-03-14T02:19:35.866Z,63.30
2018-03-14T02:20:35.816Z,71.60
2018-03-14T02:21:35.787Z,75.40
2018-03-14T02:22:35.753Z,68.80
2018-03-14T02:23:35.680Z,71.50
2018-03-14T02:24:35.651Z,79.50
2018-03-14T02:25:35.621Z,75.40
2018-03-14T02:26:35.565Z,72.80
2018-03-14T02:27:35.547Z,71.70
2018-03-14T02:28:35.474Z,79.10
2018-03-14T02:29:35.448Z,82.60
2018-03-14T02:30:35.395Z,79.10
2018-03-14T02:31:35.357Z,87.30
2018-03-14T02:32:35.316Z,83.60
2018-03-14T02:33:35.290Z,83.20
2018-03-14T02:34:35.229Z,73.70
2018-03-14T02:35:35.185Z,75.70
2018-03-14T02:36:35.148Z,84.00
2018-03-14T02:37:35.108Z,84.10
2018-03-14T02:38:35.084Z,79.50
2018-03-14T02:39:35.013Z,81.90
2018-03-14T02:40:34.973Z,82.40
2018-03-14T02:41:34.942Z,78.50
2018-03-14T02:42:34.887Z,78.00
2018-03-14T02:43:34.870Z,77.50
2018-03-14T02:44:34.812Z,79.90
2018-03-14T02:45:34.768Z,78.20
2018-03-14T02:46:34.722Z,74.20
2018-03-14T02:47:34.687Z,76.00
2018-03-14T02:48:34.640Z,84.00
2018-03-14T02:49:34.631Z,82.70
2018-03-14T02:50:34.552Z,82.80
2018-03-14T02:51:34.512Z,84.40
2018-03-14T02:52:34.465Z,81.80
2018-03-14T02:53:34.426Z,86.20
2018-03-14T02:54:34.387Z,93.80
2018-03-14T02:55:34.371Z,93.60
2018-03-14T02:56:34.311Z,93.80
2018-03-14T02:57:34.263Z,92.80
2018-03-14T02:58:34.228Z,87.20
2018-03-14T02:59:34.176Z,78.70
2018-03-14T03:00:34.164Z,77.00
2018-03-14T03:01:34.093Z,80.50
2018-03-14T03:02:34.060Z,77.20
2018-03-14T03:03:34.009Z,81.90
2018-03-14T03:04:33.974Z,82.60
2018-03-14T03:05:33.925Z,86.20
2018-03-14T03:06:33.918Z,79.70
2018-03-14T03:07:33.851Z,80.00
2018-03-14T03:08:33.811Z,83.90
2018-03-14T03:09:33.768Z,87.80
2018-03-14T03:10:33.723Z,82.20
2018-03-14T03:11:33.701Z,81.70
2018-03-14T03:12:33.635Z,78.90
2018-03-14T03:13:33.597Z,83.10
2018-03-14T03:14:33.553Z,82.70
2018-03-14T03:15:33.509Z,78.00
2018-03-14T03:16:33.462Z,81.50
2018-03-14T03:17:33.443Z,90.60
2018-03-14T03:18:33.394Z,88.00
2018-03-14T03:19:33.344Z,82.30
2018-03-14T03:20:33.295Z,77.40
2018-03-14T03:21:33.254Z,78.60
2018-03-14T03:22:33.242Z,81.10
2018-03-14T03:23:33.186Z,74.60
2018-03-14T03:24:33.134Z,72.90
2018-03-14T03:25:33.091Z,70.30
2018-03-14T03:26:33.043Z,74.00
2018-03-14T03:27:33.028Z,72.30
2018-03-14T03:28:32.964Z,73.90
2018-03-14T03:29:32.926Z,78.60
2018-03-14T03:30:32.884Z,82.40
2018-03-14T03:31:32.855Z,82.80
2018-03-14T03:32:32.796Z,88.90
2018-03-14T03:33:32.783Z,86.20
2018-03-14T03:34:32.716Z,85.40
2018-03-14T03:35:32.664Z,91.30
2018-03-14T03:36:32.631Z,91.40
2018-03-14T03:37:32.584Z,101.00
2018-03-14T03:38:32.553Z,100.40
2018-03-14T03:39:32.531Z,98.30
2018-03-14T03:40:32.465Z,96.00
2018-03-14T03:41:32.425Z,88.70
2018-03-14T03:42:32.389Z,98.60
2018-03-14T03:43:32.344Z,99.50
2018-03-14T03:44:32.292Z,98.10
2018-03-14T03:45:32.277Z,100.60
2018-03-14T03:46:32.212Z,95.40
2018-03-14T03:47:32.168Z,84.40
2018-03-14T03:48:32.138Z,82.90
2018-03-14T03:49:32.091Z,79.00
2018-03-14T03:50:32.069Z,86.40
2018-03-14T03:51:31.997Z,92.20
2018-03-14T03:52:31.965Z,75.20
2018-03-14T03:53:31.924Z,78.90
2018-03-14T03:54:31.878Z,75.00
2018-03-14T03:55:31.834Z,75.00
2018-03-14T03:56:31.829Z,78.60
2018-03-14T03:57:31.745Z,81.70
2018-03-14T03:58:31.719Z,82.20
2018-03-14T03:59:31.669Z,72.70
2018-03-14T04:00:31.624Z,75.90
2018-03-14T04:01:31.596Z,74.10
2018-03-14T04:02:31.569Z,77.80
2018-03-14T04:03:41.856Z,73.00
2018-03-14T04:04:31.469Z,77.30
2018-03-14T04:05:31.417Z,68.20
2018-03-14T04:06:31.375Z,76.50
2018-03-14T04:07:31.375Z,78.60
2018-03-14T04:08:31.295Z,73.70
2018-03-14T04:09:31.254Z,78.60
2018-03-14T04:10:31.203Z,71.60
2018-03-14T04:11:31.164Z,71.40
2018-03-14T04:12:31.120Z,76.40
2018-03-14T04:13:31.121Z,73.50
2018-03-14T04:14:31.042Z,71.60
2018-03-14T04:15:30.998Z,71.60
2018-03-14T04:16:30.961Z,80.10
2018-03-14T04:17:30.910Z,75.40
2018-03-14T04:18:30.877Z,80.20
2018-03-14T04:19:30.861Z,81.60
2018-03-14T04:20:30.788Z,81.70
2018-03-14T04:21:30.744Z,82.00
2018-03-14T04:22:30.713Z,86.00
2018-03-14T04:23:30.673Z,83.40
2018-03-14T04:24:40.415Z,84.20
2018-03-14T04:25:30.574Z,83.00
2018-03-14T04:26:30.544Z,80.60
2018-03-14T04:27:30.496Z,85.40
2018-03-14T04:28:30.452Z,78.90
2018-03-14T04:29:30.426Z,81.50
2018-03-14T04:30:30.401Z,81.70
2018-03-14T04:31:30.347Z,85.30
2018-03-14T04:32:30.286Z,82.40
2018-03-14T04:33:30.254Z,73.40
2018-03-14T04:34:30.206Z,68.50
2018-03-14T04:35:30.166Z,64.10
2018-03-14T04:36:30.145Z,69.30
2018-03-14T04:37:30.086Z,70.00
2018-03-14T04:38:30.034Z,67.50
2018-03-14T04:39:30.008Z,65.50
2018-03-14T04:40:29.956Z,67.20
2018-03-14T04:41:29.921Z,61.30
2018-03-14T04:42:29.901Z,67.90
2018-03-14T04:43:29.828Z,64.00
2018-03-14T04:44:29.785Z,66.80
2018-03-14T04:45:29.738Z,67.50
2018-03-14T04:46:29.702Z,69.50
2018-03-14T04:47:29.689Z,71.70
2018-03-14T04:48:29.619Z,68.70
2018-03-14T04:49:29.632Z,67.00
2018-03-14T04:50:29.536Z,68.60
2018-03-14T04:51:29.494Z,66.00
2018-03-14T04:52:29.465Z,68.10
2018-03-14T04:53:29.444Z,67.60
2018-03-14T04:54:29.379Z,68.00
2018-03-14T04:55:29.332Z,68.10
2018-03-14T04:56:29.291Z,69.50
2018-03-14T04:57:29.240Z,68.20
2018-03-14T04:58:29.213Z,60.80
2018-03-14T04:59:29.182Z,66.00
2018-03-14T05:00:29.110Z,66.70
2018-03-14T05:01:29.075Z,66.70
2018-03-14T05:02:29.038Z,70.00
2018-03-14T05:03:28.995Z,70.70
2018-03-14T05:04:28.985Z,70.00
2018-03-14T05:05:28.903Z,66.90
2018-03-14T05:06:28.871Z,70.00
2018-03-14T05:07:28.890Z,69.70
2018-03-14T05:08:28.778Z,66.50
2018-03-14T05:09:28.775Z,63.40
2018-03-14T05:10:28.702Z,64.70
2018-03-14T05:11:28.665Z,66.50
2018-03-14T05:12:28.607Z,64.10
2018-03-14T05:13:28.577Z,66.80
2018-03-14T05:14:28.560Z,63.40
2018-03-14T05:15:28.500Z,67.80
2018-03-14T05:16:28.454Z,67.80
2018-03-14T05:17:28.412Z,66.50
2018-03-14T05:18:28.366Z,65.10
2018-03-14T05:19:28.336Z,71.20
2018-03-14T05:20:28.312Z,68.90
2018-03-14T05:21:28.245Z,70.20
2018-03-14T05:22:28.193Z,67.60
2018-03-14T05:23:28.162Z,69.20
2018-03-14T05:24:28.114Z,73.60
2018-03-14T05:25:28.073Z,69.70
2018-03-14T05:26:28.069Z,71.50
2018-03-14T05:27:27.990Z,74.70
2018-03-14T05:28:27.950Z,68.00
2018-03-14T05:29:27.898Z,73.80
2018-03-14T05:30:27.870Z,68.70
2018-03-14T05:31:27.858Z,73.90
2018-03-14T05:32:27.791Z,72.40
2018-03-14T05:33:27.743Z,74.80
2018-03-14T05:34:27.703Z,70.90
2018-03-14T05:35:27.659Z,74.60
2018-03-14T05:36:27.619Z,75.80
2018-03-14T05:37:27.596Z,70.70
2018-03-14T05:38:27.537Z,71.90
2018-03-14T05:39:27.487Z,70.80
2018-03-14T05:40:27.443Z,71.80
2018-03-14T05:41:27.473Z,75.20
2018-03-14T05:42:27.358Z,78.20
2018-03-14T05:43:27.344Z,72.10
2018-03-14T05:44:27.279Z,74.70
2018-03-14T05:45:27.237Z,72.10
2018-03-14T05:46:27.197Z,74.90
2018-03-14T05:47:27.146Z,69.90
2018-03-14T05:48:27.144Z,68.70
2018-03-14T05:49:27.064Z,72.00
2018-03-14T05:50:27.033Z,68.30
2018-03-14T05:51:26.988Z,70.10
2018-03-14T05:52:26.940Z,66.50
2018-03-14T05:53:26.898Z,70.30
2018-03-14T05:54:26.889Z,65.00
2018-03-14T05:55:26.818Z,68.80
2018-03-14T05:56:26.776Z,69.90
2018-03-14T05:57:26.733Z,67.90
2018-03-14T05:58:26.696Z,72.10
2018-03-14T05:59:26.646Z,71.40
2018-03-14T06:00:26.638Z,73.10
2018-03-14T06:01:26.567Z,78.50
2018-03-14T06:02:27.422Z,77.30
2018-03-14T06:03:26.485Z,73.10
2018-03-14T06:04:26.446Z,74.40
2018-03-14T06:05:26.394Z,75.40
2018-03-14T06:06:26.373Z,72.70
2018-03-14T06:07:26.312Z,77.30
2018-03-14T06:08:26.278Z,74.30
2018-03-14T06:09:26.235Z,76.40
2018-03-14T06:10:26.186Z,81.20
2018-03-14T06:11:26.176Z,77.60
2018-03-14T06:12:26.113Z,74.00
2018-03-14T06:13:26.073Z,75.60
2018-03-14T06:14:26.016Z,77.80
2018-03-14T06:15:25.977Z,71.40
2018-03-14T06:16:25.978Z,70.40
2018-03-14T06:17:25.926Z,73.70
2018-03-14T06:18:25.848Z,73.80
2018-03-14T06:19:25.812Z,73.40
2018-03-14T06:20:25.774Z,73.70
2018-03-14T06:21:25.721Z,73.00
2018-03-14T06:22:25.696Z,72.70
2018-03-14T06:23:25.667Z,68.80
2018-03-14T06:24:25.593Z,69.80
2018-03-14T06:25:25.557Z,73.10
2018-03-14T06:26:25.505Z,67.70
2018-03-14T06:27:25.468Z,67.10
2018-03-14T06:28:25.447Z,67.70
2018-03-14T06:29:25.386Z,67.50
2018-03-14T06:30:25.341Z,66.70
2018-03-14T06:31:25.291Z,71.00
2018-03-14T06:32:25.251Z,70.70
2018-03-14T06:33:25.250Z,69.20
2018-03-14T06:34:25.180Z,67.80
2018-03-14T06:35:25.136Z,69.10
2018-03-14T06:36:25.090Z,70.50
2018-03-14T06:37:25.040Z,84.90
2018-03-14T06:38:25.000Z,100.00
2018-03-14T06:39:24.997Z,97.50
2018-03-14T06:40:24.926Z,79.30
2018-03-14T06:41:24.876Z,52.40
2018-03-14T06:42:24.845Z,51.40
2018-03-14T06:43:24.793Z,44.80
2018-03-14T06:44:24.752Z,44.70
2018-03-14T06:45:24.730Z,43.40
2018-03-14T06:46:24.673Z,41.90
2018-03-14T06:47:24.633Z,43.70
2018-03-14T06:48:24.586Z,42.00
2018-03-14T06:49:24.548Z,45.70
2018-03-14T06:50:24.527Z,44.70
2018-03-14T06:51:24.457Z,45.50
2018-03-14T06:52:24.426Z,41.70
2018-03-14T06:53:24.383Z,38.60
2018-03-14T06:54:24.339Z,37.20
2018-03-14T06:55:24.300Z,36.20
2018-03-14T06:56:24.268Z,35.40
2018-03-14T06:57:24.214Z,34.00
2018-03-14T06:58:24.174Z,32.70
2018-03-14T06:59:24.133Z,32.60
2018-03-14T07:00:24.086Z,32.20
2018-03-14T07:01:24.078Z,32.50
2018-03-14T07:02:24.007Z,31.30
2018-03-14T07:03:23.965Z,31.10
2018-03-14T07:04:23.930Z,30.30
2018-03-14T07:05:23.890Z,30.40
2018-03-14T07:06:23.845Z,30.40
2018-03-14T07:07:23.843Z,31.00
2018-03-14T07:08:23.767Z,32.20
2018-03-14T07:09:23.732Z,33.00
2018-03-14T07:10:23.689Z,35.10
2018-03-14T07:11:23.685Z,35.00
2018-03-14T07:12:23.611Z,36.80
2018-03-14T07:13:23.595Z,35.90
2018-03-14T07:14:23.534Z,36.10
2018-03-14T07:15:23.499Z,36.10
2018-03-14T07:16:23.454Z,39.30
2018-03-14T07:17:23.424Z,44.80
2018-03-14T07:18:23.394Z,40.70
2018-03-14T07:19:23.342Z,37.70
2018-03-14T07:20:23.292Z,38.30
2018-03-14T07:21:23.256Z,35.90
2018-03-14T07:22:23.219Z,35.00
2018-03-14T07:23:23.178Z,35.20
2018-03-14T07:24:23.162Z,36.30
2018-03-14T07:25:23.094Z,35.60
2018-03-14T07:26:23.068Z,34.20
2018-03-14T07:27:23.016Z,33.80
2018-03-14T07:28:22.976Z,33.30
2018-03-14T07:29:22.946Z,32.40
2018-03-14T07:30:22.930Z,32.60
2018-03-14T07:31:22.862Z,31.20
2018-03-14T07:32:22.830Z,30.60
2018-03-14T07:33:22.778Z,29.70
2018-03-14T07:34:22.747Z,31.00
2018-03-14T07:35:22.737Z,32.00
2018-03-14T07:36:22.740Z,32.20
2018-03-14T07:37:22.630Z,30.80
2018-03-14T07:38:22.613Z,31.60
2018-03-14T07:39:22.561Z,31.30
2018-03-14T07:40:22.520Z,31.90
2018-03-14T07:41:22.580Z,31.70
2018-03-14T07:42:22.438Z,31.80
2018-03-14T07:43:22.404Z,33.60
2018-03-14T07:44:22.378Z,33.80
2018-03-14T07:45:22.327Z,33.50
2018-03-14T07:46:22.302Z,32.60
2018-03-14T07:47:22.286Z,32.70
2018-03-14T07:48:22.218Z,32.80
2018-03-14T07:49:22.193Z,32.90
2018-03-14T07:50:22.155Z,33.50
2018-03-14T07:51:22.118Z,33.30
2018-03-14T07:52:22.080Z,32.60
2018-03-14T07:53:22.072Z,32.20
2018-03-14T07:54:22.007Z,32.80
2018-03-14T07:55:21.968Z,30.90
2018-03-14T07:56:21.968Z,31.20
2018-03-14T07:57:21.906Z,31.60
2018-03-14T07:58:21.887Z,30.20
2018-03-14T07:59:21.829Z,28.20
2018-03-14T08:00:21.798Z,27.20
2018-03-14T08:01:21.758Z,25.10
2018-03-14T08:02:21.736Z,24.70
2018-03-14T08:03:21.714Z,24.60
2018-03-14T08:04:21.713Z,23.20
2018-03-14T08:05:21.633Z,22.30
2018-03-14T08:06:21.590Z,20.30
2018-03-14T08:07:21.557Z,21.00
2018-03-14T08:08:21.544Z,22.70
2018-03-14T08:09:32.961Z,22.30
2018-03-14T08:10:21.449Z,22.50
2018-03-14T08:11:21.416Z,22.60
2018-03-14T08:12:21.410Z,24.90
2018-03-14T08:13:21.363Z,23.70
2018-03-14T08:14:21.334Z,22.50
2018-03-14T08:15:21.276Z,24.30
2018-03-14T08:16:21.239Z,23.30
2018-03-14T08:17:21.196Z,24.50
2018-03-14T08:18:21.165Z,24.80
2018-03-14T08:19:21.163Z,25.20
2018-03-14T08:20:21.102Z,24.10
2018-03-14T08:21:21.064Z,23.60
2018-03-14T08:22:21.057Z,23.90
2018-03-14T08:23:20.998Z,23.40
2018-03-14T08:24:20.954Z,28.50
2018-03-14T08:25:20.951Z,28.80
2018-03-14T08:26:20.898Z,28.70
2018-03-14T08:27:20.866Z,29.80
2018-03-14T08:28:20.821Z,29.60
2018-03-14T08:29:20.787Z,33.10
2018-03-14T08:30:20.794Z,32.90
2018-03-14T08:31:20.716Z,34.10
2018-03-14T08:32:20.689Z,32.80
2018-03-14T08:33:20.666Z,33.50
2018-03-14T08:34:20.619Z,32.50
2018-03-14T08:35:20.590Z,32.20
2018-03-14T08:36:20.586Z,32.00
2018-03-14T08:37:20.532Z,31.10
2018-03-14T08:38:20.484Z,30.70
2018-03-14T08:39:20.460Z,29.60
2018-03-14T08:40:20.408Z,30.80
2018-03-14T08:41:20.373Z,29.40
2018-03-14T08:42:20.368Z,31.60
2018-03-14T08:43:20.306Z,32.40
2018-03-14T08:44:20.278Z,32.80
2018-03-14T08:45:20.243Z,31.50
2018-03-14T08:46:20.204Z,31.20
2018-03-14T08:47:20.196Z,29.30
2018-03-14T08:48:20.134Z,30.70
2018-03-14T08:49:20.084Z,30.00
2018-03-14T08:50:20.084Z,29.50
2018-03-14T08:51:20.023Z,28.50
2018-03-14T08:52:19.990Z,27.10
2018-03-14T08:53:19.969Z,26.60
2018-03-14T08:54:19.974Z,26.20
2018-03-14T08:55:19.878Z,26.00
2018-03-14T08:56:19.860Z,26.00
2018-03-14T08:57:19.816Z,24.80
2018-03-14T08:58:19.779Z,24.70
2018-03-14T08:59:19.774Z,24.80
2018-03-14T09:00:19.716Z,22.40
2018-03-14T09:01:19.681Z,22.80
2018-03-14T09:02:19.648Z,22.70
2018-03-14T09:03:19.607Z,22.30
2018-03-14T09:04:19.620Z,20.50
2018-03-14T09:05:19.557Z,21.50
2018-03-14T09:06:19.516Z,19.90
2018-03-14T09:07:19.527Z,19.00
2018-03-14T09:08:19.456Z,17.90
2018-03-14T09:09:19.428Z,17.80
2018-03-14T09:10:19.425Z,18.20
2018-03-14T09:11:19.358Z,17.30
2018-03-14T09:12:19.322Z,18.10
2018-03-14T09:13:19.295Z,19.00
2018-03-14T09:14:19.263Z,19.60
2018-03-14T09:15:19.240Z,19.20
2018-03-14T09:16:19.249Z,19.40
2018-03-14T09:17:19.168Z,18.70
2018-03-14T09:18:19.137Z,18.50
2018-03-14T09:19:19.165Z,18.40
2018-03-14T09:20:19.077Z,17.80
2018-03-14T09:21:19.044Z,17.00
2018-03-14T09:22:19.041Z,18.10
2018-03-14T09:23:18.984Z,16.90
2018-03-14T09:24:18.955Z,18.60
2018-03-14T09:25:18.923Z,16.70
2018-03-14T09:26:18.900Z,17.70
2018-03-14T09:27:18.884Z,16.70
2018-03-14T09:28:18.835Z,15.50
2018-03-14T09:29:18.801Z,16.00
2018-03-14T09:30:18.767Z,15.90
2018-03-14T09:31:18.741Z,15.50
2018-03-14T09:32:18.730Z,15.50
2018-03-14T09:33:18.721Z,15.10
2018-03-14T09:34:18.656Z,16.30
2018-03-14T09:35:18.622Z,16.00
2018-03-14T09:36:18.599Z,16.70
2018-03-14T09:37:18.595Z,17.60
2018-03-14T09:38:18.530Z,17.90
2018-03-14T09:39:18.501Z,17.80
2018-03-14T09:40:18.470Z,18.10
2018-03-14T09:41:18.444Z,17.70
2018-03-14T09:42:18.407Z,17.30
2018-03-14T09:43:18.407Z,16.60
2018-03-14T09:44:18.355Z,17.00
2018-03-14T09:45:18.337Z,16.40
2018-03-14T09:46:18.282Z,16.10
2018-03-14T09:47:18.249Z,15.10
2018-03-14T09:48:18.229Z,15.40
2018-03-14T09:49:18.216Z,15.00
2018-03-14T09:50:18.156Z,15.00
2018-03-14T09:51:18.132Z,14.20
2018-03-14T09:52:18.087Z,13.80
2018-03-14T09:53:18.069Z,15.00
2018-03-14T09:54:18.062Z,17.70
2018-03-14T09:55:18.033Z,18.30
2018-03-14T09:56:17.990Z,18.50
2018-03-14T09:57:17.943Z,18.20
2018-03-14T09:58:17.923Z,18.40
2018-03-14T09:59:17.883Z,18.20
2018-03-14T10:00:17.884Z,17.50
2018-03-14T10:01:17.830Z,17.70
2018-03-14T10:02:17.795Z,17.40
2018-03-14T10:03:17.768Z,18.00
2018-03-14T10:04:17.734Z,16.50
2018-03-14T10:05:17.710Z,16.80
2018-03-14T10:06:17.702Z,15.80
2018-03-14T10:07:17.647Z,15.40
2018-03-14T10:08:17.618Z,15.80
2018-03-14T10:09:17.593Z,16.10
2018-03-14T10:10:17.554Z,16.20
2018-03-14T10:11:17.566Z,16.30
2018-03-14T10:12:17.494Z,16.20
2018-03-14T10:13:17.494Z,17.00
2018-03-14T10:14:17.446Z,16.80
2018-03-14T10:15:17.421Z,16.20
2018-03-14T10:16:17.380Z,15.80
2018-03-14T10:17:17.383Z,15.60
2018-03-14T10:18:17.336Z,15.00
2018-03-14T10:19:17.324Z,16.00
2018-03-14T10:20:17.270Z,14.90
2018-03-14T10:21:17.243Z,15.10
2018-03-14T10:22:17.218Z,14.50
2018-03-14T10:23:17.213Z,14.70
2018-03-14T10:24:17.158Z,14.80
2018-03-14T10:25:17.130Z,14.90
2018-03-14T10:26:17.102Z,15.70
2018-03-14T10:27:17.071Z,16.20
2018-03-14T10:28:17.050Z,16.50
2018-03-14T10:29:17.048Z,15.90
2018-03-14T10:30:16.986Z,16.00
2018-03-14T10:31:16.955Z,16.80
2018-03-14T10:32:16.931Z,16.40
2018-03-14T10:33:16.912Z,16.60
2018-03-14T10:34:16.863Z,15.90
2018-03-14T10:35:16.901Z,15.30
2018-03-14T10:36:16.800Z,16.30
2018-03-14T10:37:16.768Z,15.90
2018-03-14T10:38:16.768Z,15.40
2018-03-14T10:39:16.718Z,15.30
2018-03-14T10:40:16.716Z,16.20
2018-03-14T10:41:16.648Z,14.90
2018-03-14T10:42:16.621Z,15.60
2018-03-14T10:43:16.589Z,15.00
2018-03-14T10:44:16.547Z,15.30
2018-03-14T10:45:16.525Z,15.80
2018-03-14T10:46:16.515Z,15.60
2018-03-14T10:47:16.451Z,15.00
2018-03-14T10:48:16.426Z,15.50
2018-03-14T10:49:16.414Z,14.60
2018-03-14T10:50:16.364Z,13.70
2018-03-14T10:51:16.365Z,14.00
2018-03-14T10:52:16.291Z,13.10
2018-03-14T10:53:16.257Z,13.50
2018-03-14T10:54:16.218Z,13.30
2018-03-14T10:55:16.198Z,13.00
2018-03-14T10:56:16.156Z,13.00
2018-03-14T10:57:16.149Z,13.10
2018-03-14T10:58:16.097Z,12.20
2018-03-14T10:59:16.056Z,12.50
2018-03-14T11:00:16.028Z,12.40
2018-03-14T11:01:15.993Z,12.30
2018-03-14T11:02:15.972Z,12.70
2018-03-14T11:03:15.963Z,12.80
2018-03-14T11:04:15.901Z,12.50
2018-03-14T11:05:15.887Z,12.30
2018-03-14T11:06:15.846Z,12.20
2018-03-14T11:07:15.813Z,12.30
2018-03-14T11:08:15.803Z,12.40
2018-03-14T11:09:15.745Z,11.60
2018-03-14T11:10:15.727Z,12.50
2018-03-14T11:11:15.690Z,11.30
2018-03-14T11:12:15.671Z,11.60
2018-03-14T11:13:15.659Z,12.10
2018-03-14T11:14:15.596Z,11.70
2018-03-14T11:15:15.573Z,12.10
2018-03-14T11:16:15.553Z,11.50
2018-03-14T11:17:15.515Z,11.30
2018-03-14T11:18:15.513Z,11.50
2018-03-14T11:19:15.457Z,13.10
2018-03-14T11:20:15.425Z,12.40
2018-03-14T11:21:15.397Z,12.20
2018-03-14T11:22:15.373Z,11.20
2018-03-14T11:23:15.361Z,12.60
2018-03-14T11:24:15.305Z,12.60
2018-03-14T11:25:15.286Z,12.60
2018-03-14T11:26:15.249Z,11.90
2018-03-14T11:27:15.222Z,11.90
2018-03-14T11:28:15.182Z,12.60
2018-03-14T11:29:15.181Z,13.10
2018-03-14T11:30:15.128Z,12.40
2018-03-14T11:31:15.101Z,11.40
2018-03-14T11:32:15.077Z,12.10
2018-03-14T11:33:15.050Z,11.70
2018-03-14T11:34:15.011Z,11.80
2018-03-14T11:35:15.024Z,11.40
2018-03-14T11:36:14.953Z,11.60
2018-03-14T11:37:14.932Z,11.00
2018-03-14T11:38:14.888Z,11.30
2018-03-14T11:39:14.878Z,11.10
2018-03-14T11:40:14.866Z,10.90
2018-03-14T11:41:14.803Z,11.80
2018-03-14T11:42:14.782Z,11.30
2018-03-14T11:43:14.753Z,11.70
2018-03-14T11:44:14.723Z,11.70
2018-03-14T11:45:14.690Z,12.00
2018-03-14T11:46:14.693Z,11.70
2018-03-14T11:47:14.643Z,12.20
2018-03-14T11:48:14.603Z,11.60
2018-03-14T11:49:14.579Z,11.50
2018-03-14T11:50:14.550Z,11.20
2018-03-14T11:51:14.526Z,11.20
2018-03-14T11:52:14.531Z,10.80
2018-03-14T11:53:14.474Z,11.40
2018-03-14T11:54:14.451Z,11.50
2018-03-14T11:55:14.408Z,11.10
2018-03-14T11:56:14.375Z,11.50
2018-03-14T11:57:14.402Z,10.40
2018-03-14T11:58:14.356Z,11.90
2018-03-14T11:59:14.295Z,11.60
2018-03-14T12:00:14.276Z,11.50
2018-03-14T12:01:14.236Z,11.50
2018-03-14T12:02:14.213Z,11.20
2018-03-14T12:03:14.212Z,11.70
2018-03-14T12:04:14.207Z,12.30
2018-03-14T12:05:14.126Z,11.90
2018-03-14T12:06:14.100Z,12.10
2018-03-14T12:07:14.092Z,12.40
2018-03-14T12:08:14.045Z,12.00
2018-03-14T12:09:14.014Z,12.10
2018-03-14T12:10:14.014Z,12.70
2018-03-14T12:11:13.951Z,12.10
2018-03-14T12:12:13.946Z,12.50
2018-03-14T12:13:13.903Z,12.20
2018-03-14T12:14:13.878Z,11.20
2018-03-14T12:15:13.834Z,12.20
2018-03-14T12:16:13.857Z,11.30
2018-03-14T12:17:13.786Z,11.70
2018-03-14T12:18:13.783Z,11.30
2018-03-14T12:19:13.721Z,11.60
2018-03-14T12:20:13.697Z,12.30
2018-03-14T12:21:13.665Z,12.00
2018-03-14T12:22:13.632Z,11.50
2018-03-14T12:23:13.617Z,12.20
2018-03-14T12:24:13.603Z,12.30
2018-03-14T12:25:13.547Z,12.70
2018-03-14T12:26:13.528Z,11.60
2018-03-14T12:27:13.493Z,12.10
2018-03-14T12:28:13.458Z,12.00
2018-03-14T12:29:13.435Z,12.80
2018-03-14T12:30:13.433Z,12.80
2018-03-14T12:31:13.377Z,12.80
2018-03-14T12:32:13.347Z,12.80
2018-03-14T12:33:13.317Z,12.30
2018-03-14T12:34:13.290Z,12.70
2018-03-14T12:35:13.280Z,12.80
2018-03-14T12:36:13.226Z,13.00
2018-03-14T12:37:13.193Z,13.40
2018-03-14T12:38:13.174Z,13.00
2018-03-14T12:39:13.140Z,13.20
2018-03-14T12:40:13.104Z,12.00
2018-03-14T12:41:13.114Z,12.90
2018-03-14T12:42:13.060Z,11.90
2018-03-14T12:43:13.022Z,12.60
2018-03-14T12:44:12.981Z,13.20
2018-03-14T12:45:12.954Z,12.70
2018-03-14T12:46:12.932Z,12.30
2018-03-14T12:47:12.919Z,12.40
2018-03-14T12:48:12.875Z,13.00
2018-03-14T12:49:12.838Z,12.90
2018-03-14T12:50:12.806Z,13.30
2018-03-14T12:51:12.780Z,13.00
2018-03-14T12:52:12.774Z,12.70